createdAt,value
2018-04-15T00:02:27.910Z,114.50
2018-04-15T00:04:56.053Z,117.30
2018-04-15T00:07:24.207Z,98.13
2018-04-15T00:09:52.381Z,104.23
2018-04-15T00:12:20.567Z,106.47
2018-04-15T00:14:48.732Z,111.37
2018-04-15T00:17:17.001Z,97.23
2018-04-15T00:19:45.154Z,94.13
2018-04-15T00:22:14.105Z,111.57
2018-04-15T00:24:42.267Z,106.27
2018-04-15T00:27:10.433Z,109.13
2018-04-15T00:29:38.615Z,103.47
2018-04-15T00:32:06.763Z,106.77
2018-04-15T00:34:34.927Z,99.93
2018-04-15T00:37:03.862Z,100.53
2018-04-15T00:39:32.045Z,100.77
2018-04-15T00:42:00.169Z,111.90
2018-04-15T00:44:28.328Z,99.57
2018-04-15T00:46:57.257Z,96.30
2018-04-15T00:49:25.469Z,118.30
2018-04-15T00:51:53.646Z,107.43
2018-04-15T00:54:21.831Z,103.73
2018-04-15T00:56:50.878Z,108.13
2018-04-15T00:59:19.096Z,110.87
2018-04-15T01:01:48.008Z,116.20
2018-04-15T01:04:16.178Z,104.47
2018-04-15T01:06:45.090Z,115.83
2018-04-15T01:09:13.246Z,107.17
2018-04-15T01:11:41.424Z,112.63
2018-04-15T01:14:09.568Z,105.90
2018-04-15T01:16:38.484Z,100.97
2018-04-15T01:19:06.624Z,110.03
2018-04-15T01:21:34.786Z,123.93
2018-04-15T01:24:02.937Z,113.77
2018-04-15T01:26:31.120Z,109.33
2018-04-15T01:28:59.277Z,99.13
2018-04-15T01:31:27.446Z,104.47
2018-04-15T01:33:55.617Z,107.03
2018-04-15T01:36:23.814Z,111.30
2018-04-15T01:38:51.967Z,117.90
2018-04-15T01:41:20.125Z,119.50
2018-04-15T01:43:48.269Z,112.63
2018-04-15T01:46:17.201Z,107.33
2018-04-15T01:48:45.372Z,110.43
2018-04-15T01:51:13.517Z,101.90
2018-04-15T01:53:41.665Z,108.57
2018-04-15T01:56:10.599Z,120.10
2018-04-15T01:58:38.729Z,121.40
2018-04-15T02:01:07.676Z,116.40
2018-04-15T02:03:35.842Z,112.43
2018-04-15T02:06:04.010Z,115.73
2018-04-15T02:08:32.173Z,113.90
2018-04-15T02:11:00.306Z,108.10
2018-04-15T02:13:29.227Z,106.93
2018-04-15T02:15:57.365Z,104.43
2018-04-15T02:18:25.506Z,108.67
2018-04-15T02:20:53.634Z,118.17
2018-04-15T02:23:21.783Z,116.90
2018-04-15T02:25:49.948Z,112.13
2018-04-15T02:28:18.143Z,109.10
2018-04-15T02:30:47.070Z,102.67
2018-04-15T02:33:15.213Z,131.90
2018-04-15T02:35:43.406Z,122.90
2018-04-15T02:38:11.576Z,141.40
2018-04-15T02:40:39.743Z,119.03
2018-04-15T02:43:07.980Z,125.43
2018-04-15T02:45:36.150Z,114.97
2018-04-15T02:48:04.322Z,120.63
2018-04-15T02:50:32.471Z,121.60
2018-04-15T02:53:00.650Z,132.00
2018-04-15T02:55:28.811Z,122.33
2018-04-15T02:57:56.970Z,134.27
2018-04-15T03:00:25.128Z,127.27
2018-04-15T03:02:53.319Z,126.60
2018-04-15T03:05:21.514Z,129.83
2018-04-15T03:07:49.661Z,127.30
2018-04-15T03:10:17.830Z,117.70
2018-04-15T03:12:46.008Z,125.57
2018-04-15T03:15:14.155Z,149.40
2018-04-15T03:17:42.332Z,131.13
2018-04-15T03:20:10.482Z,142.20
2018-04-15T03:22:38.637Z,138.57
2018-04-15T03:25:06.807Z,124.80
2018-04-15T03:27:34.974Z,132.63
2018-04-15T03:30:03.123Z,131.53
2018-04-15T03:32:31.259Z,130.30
2018-04-15T03:34:59.439Z,133.93
2018-04-15T03:37:27.622Z,133.27
2018-04-15T03:39:55.789Z,133.37
2018-04-15T03:42:23.944Z,137.07
2018-04-15T03:44:52.853Z,139.80
2018-04-15T03:47:21.030Z,147.20
2018-04-15T03:49:49.233Z,137.97
2018-04-15T03:52:18.451Z,137.93
2018-04-15T03:57:48.115Z,139.87
2018-04-15T04:00:22.369Z,147.97
2018-04-15T04:02:51.384Z,152.90
2018-04-15T04:05:19.563Z,146.67
2018-04-15T04:07:47.735Z,143.83
2018-04-15T04:10:15.888Z,160.53
2018-04-15T04:12:44.076Z,173.33
2018-04-15T04:15:12.314Z,155.57
2018-04-15T04:17:58.191Z,157.07
2018-04-15T04:20:43.982Z,243.80
2018-04-15T04:23:29.846Z,186.87
2018-04-15T04:26:04.602Z,278.30
2018-04-15T04:28:32.768Z,191.20
2018-04-15T04:31:00.959Z,196.90
2018-04-15T04:33:29.153Z,179.63
2018-04-15T04:35:57.314Z,318.77
2018-04-15T04:38:25.486Z,199.73
2018-04-15T04:40:53.638Z,140.03
2018-04-15T04:43:21.807Z,125.60
2018-04-15T04:45:49.978Z,130.63
2018-04-15T04:48:18.986Z,128.90
2018-04-15T04:50:47.281Z,139.63
2018-04-15T04:56:28.543Z,109.40
2018-04-15T04:58:56.728Z,112.20
2018-04-15T05:01:31.030Z,103.97
2018-04-15T05:03:59.535Z,119.93
2018-04-15T05:06:27.715Z,107.57
2018-04-15T05:08:55.893Z,105.73
2018-04-15T05:11:24.219Z,115.43
2018-04-15T05:13:52.405Z,107.87
2018-04-15T05:19:35.024Z,100.23
2018-04-15T05:28:04.055Z,110.53
2018-04-15T05:30:32.206Z,97.03
2018-04-15T05:33:01.184Z,97.40
2018-04-15T05:41:36.948Z,101.90
2018-04-15T05:44:10.626Z,92.57
2018-04-15T05:46:38.840Z,101.60
2018-04-15T05:49:07.057Z,100.40
2018-04-15T05:51:35.217Z,95.03
2018-04-15T05:54:04.194Z,92.73
2018-04-15T05:56:32.370Z,81.97
2018-04-15T05:59:00.537Z,77.40
2018-04-15T06:01:39.245Z,75.70
2018-04-15T06:04:38.478Z,75.20
2018-04-15T06:07:07.456Z,67.67
2018-04-15T06:09:40.709Z,81.53
2018-04-15T06:15:26.942Z,74.77
2018-04-15T06:17:55.134Z,71.83
2018-04-15T06:20:23.273Z,73.57
2018-04-15T06:22:51.429Z,62.30
2018-04-15T06:25:19.615Z,65.80
2018-04-15T06:27:47.791Z,63.77
2018-04-15T06:33:17.787Z,72.10
2018-04-15T06:35:46.002Z,63.27
2018-04-15T06:38:14.185Z,60.40
2018-04-15T06:40:42.317Z,68.37
2018-04-15T06:43:10.503Z,65.30
2018-04-15T06:45:38.708Z,57.80
2018-04-15T06:48:06.875Z,63.70
2018-04-15T06:50:35.035Z,58.10
2018-04-15T06:53:03.297Z,65.70
2018-04-15T06:55:31.476Z,63.80
2018-04-15T06:57:59.665Z,66.73
2018-04-15T07:00:27.839Z,64.37
2018-04-15T07:02:56.023Z,66.40
2018-04-15T07:05:24.264Z,64.23
2018-04-15T07:07:52.457Z,71.37
2018-04-15T07:10:20.625Z,65.30
2018-04-15T07:12:48.928Z,64.47
2018-04-15T07:15:17.077Z,68.83
2018-04-15T07:17:45.250Z,64.20
2018-04-15T07:20:13.416Z,65.60
2018-04-15T07:22:41.938Z,66.17
2018-04-15T07:25:10.160Z,63.67
2018-04-15T07:27:38.327Z,66.70
2018-04-15T07:30:06.561Z,60.70
2018-04-15T07:32:34.719Z,67.97
2018-04-15T07:35:02.979Z,73.83
2018-04-15T07:37:31.847Z,69.10
2018-04-15T07:40:00.129Z,62.80
2018-04-15T07:42:28.377Z,71.50
2018-04-15T07:44:56.546Z,66.20
2018-04-15T07:47:24.743Z,63.27
2018-04-15T07:49:52.915Z,64.67
2018-04-15T07:52:21.092Z,60.87
2018-04-15T07:54:49.289Z,68.03
2018-04-15T07:57:17.472Z,66.17
2018-04-15T07:59:45.617Z,67.90
2018-04-15T08:02:13.785Z,69.93
2018-04-15T08:04:41.943Z,68.53
2018-04-15T08:07:10.302Z,67.27
2018-04-15T08:09:38.488Z,65.63
2018-04-15T08:12:06.668Z,67.73
2018-04-15T08:14:34.934Z,68.50
2018-04-15T08:17:03.107Z,71.47
2018-04-15T08:19:31.450Z,78.27
2018-04-15T08:21:59.593Z,84.30
2018-04-15T08:24:27.775Z,67.37
2018-04-15T08:26:55.926Z,72.50
2018-04-15T08:29:24.128Z,76.33
2018-04-15T08:31:52.271Z,77.03
2018-04-15T08:34:20.421Z,73.53
2018-04-15T08:36:48.578Z,80.27
2018-04-15T08:39:16.750Z,66.40
2018-04-15T08:41:44.898Z,76.07
2018-04-15T08:44:13.096Z,71.00
2018-04-15T08:46:42.040Z,77.40
2018-04-15T08:49:10.217Z,79.53
2018-04-15T08:51:38.433Z,72.63
2018-04-15T08:54:06.641Z,74.00
2018-04-15T08:56:35.024Z,87.63
2018-04-15T08:59:03.274Z,72.33
2018-04-15T09:01:31.506Z,80.40
2018-04-15T09:03:59.660Z,67.53
2018-04-15T09:06:27.848Z,75.77
2018-04-15T09:08:56.025Z,83.80
2018-04-15T09:11:24.230Z,97.13
2018-04-15T09:13:52.396Z,90.37
2018-04-15T09:16:21.305Z,83.40
2018-04-15T09:18:49.465Z,75.67
2018-04-15T09:21:18.406Z,78.33
2018-04-15T09:23:46.618Z,80.27
2018-04-15T09:26:14.851Z,84.47
2018-04-15T09:28:43.009Z,77.57
2018-04-15T09:31:12.084Z,76.33
2018-04-15T09:33:40.260Z,74.60
2018-04-15T09:36:08.429Z,78.97
2018-04-15T09:38:36.609Z,75.40
2018-04-15T09:41:04.828Z,74.23
2018-04-15T09:43:32.962Z,84.07
2018-04-15T09:46:01.118Z,92.33
2018-04-15T09:48:29.280Z,84.37
2018-04-15T09:50:58.229Z,89.60
2018-04-15T09:53:26.412Z,89.87
2018-04-15T09:55:54.597Z,83.67
2018-04-15T09:58:22.805Z,86.43
2018-04-15T10:00:51.097Z,88.67
2018-04-15T10:03:19.318Z,81.03
2018-04-15T10:05:48.312Z,80.97
2018-04-15T10:08:16.496Z,83.57
2018-04-15T10:10:44.664Z,76.47
2018-04-15T10:13:12.829Z,80.23
2018-04-15T10:15:41.755Z,78.60
2018-04-15T10:18:09.934Z,86.80
2018-04-15T10:20:38.104Z,85.43
2018-04-15T10:23:06.321Z,77.63
2018-04-15T10:25:34.466Z,88.77
2018-04-15T10:28:02.605Z,77.00
2018-04-15T10:30:30.926Z,71.03
2018-04-15T10:32:59.137Z,78.70
2018-04-15T10:35:28.191Z,85.70
2018-04-15T10:37:56.412Z,74.37
2018-04-15T10:40:25.436Z,79.73
2018-04-15T10:42:53.743Z,75.60
2018-04-15T10:45:21.931Z,70.63
2018-04-15T10:47:50.109Z,70.73
2018-04-15T10:50:18.280Z,71.70
2018-04-15T10:52:46.452Z,65.57
2018-04-15T10:55:15.438Z,66.97
2018-04-15T10:57:44.217Z,69.63
2018-04-15T11:00:12.387Z,69.97
2018-04-15T11:02:41.360Z,76.73
2018-04-15T11:05:11.285Z,68.97
2018-04-15T11:07:39.598Z,69.60
2018-04-15T11:10:07.893Z,77.13
2018-04-15T11:12:37.105Z,69.70
2018-04-15T11:15:05.386Z,70.67
2018-04-15T11:17:33.668Z,62.33
2018-04-15T11:20:02.989Z,62.93
2018-04-15T11:22:31.419Z,70.30
2018-04-15T11:24:59.696Z,68.90
2018-04-15T11:27:27.888Z,64.53
2018-04-15T11:29:56.060Z,65.37
2018-04-15T11:32:24.281Z,57.50
2018-04-15T11:34:52.439Z,66.13
2018-04-15T11:37:20.573Z,67.97
2018-04-15T11:39:48.744Z,76.70
2018-04-15T11:42:17.434Z,63.20
2018-04-15T11:44:45.585Z,68.10
2018-04-15T11:47:14.513Z,60.63
2018-04-15T11:49:42.732Z,61.87
2018-04-15T11:55:10.235Z,63.27
2018-04-15T11:57:38.461Z,66.90
2018-04-15T12:00:06.664Z,67.20
2018-04-15T12:02:34.826Z,65.70
2018-04-15T12:05:02.974Z,68.20
2018-04-15T12:07:31.123Z,68.53
2018-04-15T12:09:59.335Z,63.90
2018-04-15T12:12:27.526Z,57.83
2018-04-15T12:14:55.711Z,63.97
2018-04-15T12:17:24.656Z,56.10
2018-04-15T12:19:52.835Z,57.60
2018-04-15T12:22:20.986Z,69.53
2018-04-15T12:24:49.181Z,68.07
2018-04-15T12:27:17.366Z,66.33
2018-04-15T12:29:45.564Z,71.07
2018-04-15T12:32:14.492Z,73.53
2018-04-15T12:34:42.689Z,63.03
2018-04-15T12:37:10.861Z,67.90
2018-04-15T12:39:39.094Z,66.47
2018-04-15T12:42:07.255Z,73.63
2018-04-15T12:44:36.261Z,80.80
2018-04-15T12:47:04.415Z,73.73
2018-04-15T12:49:32.602Z,70.63
2018-04-15T12:52:00.789Z,74.57
2018-04-15T12:54:28.943Z,70.27
2018-04-15T12:56:57.843Z,75.07
2018-04-15T12:59:26.008Z,76.97
2018-04-15T13:01:54.933Z,63.97
2018-04-15T13:04:24.319Z,70.33
2018-04-15T13:06:52.499Z,68.03
2018-04-15T13:09:20.675Z,75.20
2018-04-15T13:11:48.956Z,67.87
2018-04-15T13:14:17.124Z,68.57
2018-04-15T13:16:45.285Z,69.67
2018-04-15T13:19:13.462Z,77.33
2018-04-15T13:21:41.645Z,73.03
2018-04-15T13:24:09.853Z,74.03
2018-04-15T13:26:38.001Z,67.73
2018-04-15T13:29:06.146Z,75.90
2018-04-15T13:31:34.330Z,71.67
2018-04-15T13:34:02.485Z,73.40
2018-04-15T13:36:30.640Z,69.73
2018-04-15T13:38:59.587Z,66.23
2018-04-15T13:41:27.737Z,74.63
2018-04-15T13:43:56.023Z,70.40
2018-04-15T13:46:24.172Z,68.87
2018-04-15T13:48:52.401Z,62.80
2018-04-15T13:51:20.650Z,61.13
2018-04-15T13:53:48.859Z,62.90
2018-04-15T13:56:17.039Z,65.17
2018-04-15T13:58:45.216Z,66.23
2018-04-15T14:01:14.153Z,74.53
2018-04-15T14:03:42.308Z,62.00
2018-04-15T14:06:10.473Z,69.67
2018-04-15T14:08:38.681Z,64.37
2018-04-15T14:11:06.855Z,74.40
2018-04-15T14:13:34.989Z,67.70
2018-04-15T14:16:03.178Z,62.27
2018-04-15T14:18:31.518Z,69.80
2018-04-15T14:21:00.503Z,66.80
2018-04-15T14:23:29.227Z,65.27
2018-04-15T14:25:57.451Z,62.00
2018-04-15T14:28:25.643Z,64.33
2018-04-15T14:30:54.580Z,61.63
2018-04-15T14:33:22.780Z,69.63
2018-04-15T14:35:50.917Z,67.47
2018-04-15T14:38:19.101Z,73.27
2018-04-15T14:40:47.284Z,65.53
2018-04-15T14:43:15.444Z,67.17
2018-04-15T14:45:43.612Z,75.57
2018-04-15T14:48:11.810Z,73.70
2018-04-15T14:50:39.973Z,75.83
2018-04-15T14:53:08.236Z,75.17
2018-04-15T14:55:36.333Z,75.40
2018-04-15T14:58:04.644Z,83.80
2018-04-15T15:00:33.590Z,79.53
2018-04-15T15:03:01.824Z,80.87
2018-04-15T15:05:30.839Z,64.47
2018-04-15T15:07:59.009Z,72.47
2018-04-15T15:10:27.187Z,76.23
2018-04-15T15:12:55.322Z,74.33
2018-04-15T15:15:24.257Z,70.07
2018-04-15T15:17:52.444Z,72.53
2018-04-15T15:20:20.635Z,71.33
2018-04-15T15:22:48.883Z,70.77
2018-04-15T15:25:17.783Z,64.23
2018-04-15T15:27:45.937Z,71.33
2018-04-15T15:30:14.118Z,70.90
2018-04-15T15:32:42.351Z,62.13
2018-04-15T15:35:11.300Z,62.27
2018-04-15T15:37:39.566Z,62.60
2018-04-15T15:40:07.732Z,60.17
2018-04-15T15:42:35.916Z,60.40
2018-04-15T15:45:04.171Z,56.40
2018-04-15T15:47:32.360Z,65.33
2018-04-15T15:50:00.551Z,65.17
2018-04-15T15:52:28.733Z,71.63
2018-04-15T15:54:56.911Z,58.10
2018-04-15T15:57:25.058Z,64.27
2018-04-15T15:59:53.193Z,73.27
2018-04-15T16:02:21.400Z,64.27
2018-04-15T16:04:49.557Z,61.53
2018-04-15T16:07:17.870Z,60.17
2018-04-15T16:09:46.219Z,57.00
2018-04-15T16:12:14.468Z,61.97
2018-04-15T16:14:42.636Z,63.60
2018-04-15T16:17:10.807Z,58.27
2018-04-15T16:19:39.003Z,66.60
2018-04-15T16:22:07.174Z,59.73
2018-04-15T16:24:35.364Z,59.10
2018-04-15T16:27:03.518Z,59.47
2018-04-15T16:29:31.670Z,68.33
2018-04-15T16:31:59.945Z,56.50
2018-04-15T16:34:28.085Z,63.33
2018-04-15T16:36:56.259Z,58.90
2018-04-15T16:39:24.587Z,59.10
2018-04-15T16:41:53.784Z,57.07
2018-04-15T16:44:21.931Z,68.20
2018-04-15T16:46:50.095Z,55.63
2018-04-15T16:49:18.323Z,51.20
2018-04-15T16:51:46.533Z,50.20
2018-04-15T16:54:14.696Z,53.20
2018-04-15T16:56:42.918Z,55.53
2018-04-15T16:59:11.136Z,54.17
2018-04-15T17:01:39.312Z,54.67
2018-04-15T17:04:07.631Z,54.07
2018-04-15T17:06:35.936Z,59.80
2018-04-15T17:09:04.113Z,55.43
2018-04-15T17:11:32.276Z,67.60
2018-04-15T17:14:00.484Z,56.20
2018-04-15T17:16:29.564Z,58.60
2018-04-15T17:18:59.560Z,59.53
2018-04-15T17:21:28.061Z,60.67
2018-04-15T17:23:57.096Z,58.63
2018-04-15T17:26:26.029Z,57.10
2018-04-15T17:28:54.233Z,60.03
2018-04-15T17:31:22.429Z,68.63
2018-04-15T17:33:51.402Z,63.23
2018-04-15T17:36:19.548Z,56.53
2018-04-15T17:38:47.723Z,59.20
2018-04-15T17:41:15.973Z,64.43
2018-04-15T17:43:44.151Z,62.10
2018-04-15T17:46:12.315Z,59.57
2018-04-15T17:48:40.532Z,58.80
2018-04-15T17:51:08.826Z,65.87
2018-04-15T17:53:37.073Z,58.50
2018-04-15T17:56:05.510Z,61.30
2018-04-15T17:58:33.850Z,72.00
2018-04-15T18:01:02.028Z,70.70
2018-04-15T18:03:30.257Z,69.90
2018-04-15T18:05:58.506Z,61.03
2018-04-15T18:08:26.723Z,66.57
2018-04-15T18:10:54.882Z,59.67
2018-04-15T18:13:23.066Z,60.00
2018-04-15T18:15:51.240Z,59.90
2018-04-15T18:18:19.402Z,60.70
2018-04-15T18:20:47.580Z,70.30
2018-04-15T18:23:15.823Z,60.87
2018-04-15T18:25:44.080Z,67.53
2018-04-15T18:28:12.420Z,58.10
2018-04-15T18:30:40.882Z,61.83
2018-04-15T18:33:09.229Z,68.07
2018-04-15T18:35:37.411Z,63.77
2018-04-15T18:38:05.600Z,68.97
2018-04-15T18:40:33.802Z,58.50
2018-04-15T18:43:02.011Z,70.80
2018-04-15T18:45:30.232Z,63.97
2018-04-15T18:47:58.390Z,62.23
2018-04-15T18:50:26.657Z,68.43
2018-04-15T18:52:54.863Z,65.97
2018-04-15T18:55:23.087Z,64.50
2018-04-15T18:57:51.279Z,68.67
2018-04-15T19:00:19.510Z,69.67
2018-04-15T19:02:48.661Z,69.20
2018-04-15T19:05:17.117Z,68.50
2018-04-15T19:07:45.518Z,70.77
2018-04-15T19:10:13.885Z,69.20
2018-04-15T19:12:42.119Z,74.63
2018-04-15T19:15:10.332Z,70.13
2018-04-15T19:17:38.523Z,68.87
2018-04-15T19:20:06.732Z,62.93
2018-04-15T19:22:34.935Z,74.33
2018-04-15T19:25:03.126Z,69.10
2018-04-15T19:27:31.327Z,69.60
2018-04-15T19:29:59.522Z,63.20
2018-04-15T19:32:27.728Z,68.43
2018-04-15T19:34:55.940Z,71.47
2018-04-15T19:37:24.196Z,63.50
2018-04-15T19:39:52.553Z,58.87
2018-04-15T19:42:20.880Z,71.70
2018-04-15T19:44:50.004Z,65.33
2018-04-15T19:47:18.326Z,63.90
2018-04-15T19:49:47.375Z,67.37
2018-04-15T19:52:15.570Z,66.63
2018-04-15T19:54:43.765Z,69.03
2018-04-15T19:57:12.938Z,77.87
2018-04-15T19:59:41.127Z,78.67
2018-04-15T20:02:09.327Z,75.77
2018-04-15T20:04:37.505Z,85.07
2018-04-15T20:07:05.732Z,70.43
2018-04-15T20:09:34.733Z,71.10
2018-04-15T20:12:02.929Z,64.60
2018-04-15T20:14:31.109Z,66.10
2018-04-15T20:16:59.389Z,73.93
2018-04-15T20:19:27.593Z,74.53
2018-04-15T20:21:55.815Z,78.47
2018-04-15T20:24:24.005Z,83.70
2018-04-15T20:26:52.159Z,90.60
2018-04-15T20:29:20.326Z,90.33
2018-04-15T20:31:48.515Z,87.13
2018-04-15T20:34:16.702Z,103.70
2018-04-15T20:36:44.843Z,98.03
2018-04-15T20:39:13.002Z,98.43
2018-04-15T20:41:41.942Z,102.13
2018-04-15T20:44:10.120Z,105.80
2018-04-15T20:46:38.322Z,104.93
2018-04-15T20:49:07.268Z,109.47
2018-04-15T20:51:35.449Z,111.27
2018-04-15T20:54:03.644Z,104.17
2018-04-15T20:56:31.870Z,101.30
2018-04-15T20:59:00.055Z,119.50
2018-04-15T21:01:28.252Z,107.37
2018-04-15T21:03:56.423Z,102.97
2018-04-15T21:06:24.577Z,113.97
2018-04-15T21:08:52.731Z,109.17
2018-04-15T21:11:20.882Z,109.77
2018-04-15T21:13:49.816Z,111.80
2018-04-15T21:16:17.951Z,113.67
2018-04-15T21:18:46.135Z,116.67
2018-04-15T21:21:14.307Z,115.10
2018-04-15T21:23:42.476Z,134.03
2018-04-15T21:26:10.714Z,130.87
2018-04-15T21:28:39.033Z,123.57
2018-04-15T21:31:07.304Z,115.80
2018-04-15T21:33:35.495Z,113.03
2018-04-15T21:36:03.668Z,117.13
2018-04-15T21:38:31.863Z,134.17
2018-04-15T21:41:00.011Z,133.20
2018-04-15T21:43:28.209Z,128.20
2018-04-15T21:45:56.411Z,124.23
2018-04-15T21:48:24.570Z,121.23
2018-04-15T21:50:52.751Z,133.43
2018-04-15T21:53:20.932Z,127.03
2018-04-15T21:55:49.833Z,131.90
2018-04-15T21:58:18.111Z,119.70
2018-04-15T22:00:47.043Z,128.63
2018-04-15T22:03:15.368Z,145.93
2018-04-15T22:05:44.322Z,137.67
2018-04-15T22:08:12.518Z,121.57
2018-04-15T22:10:40.671Z,142.17
2018-04-15T22:13:08.828Z,113.27
2018-04-15T22:15:36.982Z,133.83
2018-04-15T22:18:05.174Z,137.43
2018-04-15T22:20:33.380Z,143.40
2018-04-15T22:23:01.566Z,143.83
2018-04-15T22:25:29.789Z,128.50
2018-04-15T22:27:58.120Z,127.43
2018-04-15T22:30:26.415Z,133.80
2018-04-15T22:32:54.595Z,127.20
2018-04-15T22:35:22.782Z,143.67
2018-04-15T22:37:51.026Z,134.83
2018-04-15T22:40:19.233Z,133.40
2018-04-15T22:42:48.292Z,153.10
2018-04-15T22:45:18.369Z,141.73
2018-04-15T22:47:52.140Z,135.47
2018-04-15T22:50:20.320Z,174.53
2018-04-15T22:52:48.492Z,186.67
2018-04-15T22:55:16.842Z,168.23
2018-04-15T22:57:45.763Z,169.03
2018-04-15T23:00:14.041Z,165.47
2018-04-15T23:02:42.225Z,161.27
2018-04-15T23:05:21.686Z,178.63
2018-04-15T23:07:49.895Z,164.63
2018-04-15T23:10:18.103Z,164.07
2018-04-15T23:12:46.260Z,169.00
2018-04-15T23:15:14.465Z,184.00
2018-04-15T23:17:42.681Z,184.90
2018-04-15T23:20:10.840Z,179.40
2018-04-15T23:22:39.027Z,155.70
2018-04-15T23:25:07.193Z,160.37
2018-04-15T23:27:35.342Z,168.20
2018-04-15T23:30:04.526Z,150.50
2018-04-15T23:32:32.838Z,150.43
2018-04-15T23:35:01.067Z,170.20
2018-04-15T23:37:29.250Z,143.70
2018-04-15T23:39:58.587Z,159.47
2018-04-15T23:42:26.848Z,164.67
2018-04-15T23:44:55.032Z,137.13
2018-04-15T23:47:23.218Z,162.90
2018-04-15T23:49:52.204Z,174.97
2018-04-15T23:52:20.375Z,166.17
2018-04-15T23:54:48.833Z,147.93
2018-04-15T23:57:31.232Z,152.60
